Time;durP1;ratioP1;P1;durP2;ratioP2;P2;SDS_P1;SDS_P2;PMS_P1;PMS_P2;Temp;Humidity;BMP_temperature;BMP_pressure;BME280_temperature;BME280_humidity;BME280_pressure;Samples;Min_cycle;Max_cycle;Signal;HPM_P1;HPM_P2
2023/08/15 00:00:16;;;;;;;9.20;5.17;;;22.50;99.90;;;22.53;76.53;100710.44;5054438;28;20186;-77
2023/08/15 00:02:48;;;;;;;8.13;5.20;;;22.50;99.90;;;22.52;76.39;100706.88;5054483;28;20253;-77
2023/08/15 00:05:20;;;;;;;8.20;5.00;;;22.50;99.90;;;22.44;76.50;100703.66;5054753;28;20248;-77
2023/08/15 00:07:53;;;;;;;8.93;4.93;;;22.40;99.90;;;22.42;76.37;100700.34;5054245;28;20197;-76
2023/08/15 00:10:25;;;;;;;7.77;4.67;;;22.40;99.90;;;22.44;76.38;100692.75;5054075;28;20291;-76
2023/08/15 00:12:57;;;;;;;7.33;4.70;;;22.40;99.90;;;22.38;76.57;100690.97;5053571;28;20577;-77
2023/08/15 00:15:30;;;;;;;6.13;4.77;;;22.30;99.90;;;22.37;76.69;100692.88;5054069;28;20291;-77
2023/08/15 00:18:02;;;;;;;7.17;4.63;;;22.40;99.90;;;22.32;76.52;100686.50;5053656;28;20641;-77
2023/08/15 00:20:34;;;;;;;5.80;4.70;;;22.30;99.90;;;22.22;76.44;100682.47;5053936;28;20191;-77
2023/08/15 00:23:08;;;;;;;7.23;4.67;;;22.30;99.90;;;22.19;76.98;100691.09;5053505;28;20762;-77
2023/08/15 00:25:40;;;;;;;8.23;5.17;;;22.20;99.90;;;22.18;76.97;100689.47;5053830;28;20623;-77
2023/08/15 00:28:12;;;;;;;5.80;4.93;;;22.10;99.90;;;22.20;76.83;100686.47;5053903;28;20194;-76
2023/08/15 00:30:43;;;;;;;8.07;5.87;;;22.20;99.90;;;22.16;77.10;100696.19;5053873;28;20229;-77
2023/08/15 00:33:15;;;;;;;7.13;5.33;;;22.20;99.90;;;22.08;77.93;100682.94;5053740;28;20244;-77
2023/08/15 00:35:47;;;;;;;8.10;5.50;;;22.00;99.90;;;22.02;77.01;100687.44;5053824;28;20209;-77
2023/08/15 00:38:20;;;;;;;7.30;5.13;;;22.10;99.90;;;22.02;77.43;100692.06;5053687;28;20194;-77
2023/08/15 00:40:52;;;;;;;9.77;5.77;;;22.00;99.90;;;22.00;77.84;100689.56;5053645;28;20286;-77
2023/08/15 00:43:24;;;;;;;8.57;5.40;;;22.00;99.90;;;21.97;78.24;100686.50;5053508;28;20303;-77
2023/08/15 00:45:56;;;;;;;6.93;5.13;;;21.90;99.90;;;21.92;77.69;100680.94;5053632;28;20269;-77
2023/08/15 00:48:30;;;;;;;8.53;5.60;;;21.90;99.90;;;21.87;78.62;100691.66;5053307;28;20664;-76
2023/08/15 00:51:04;;;;;;;10.23;5.43;;;21.80;99.90;;;21.80;78.89;100685.50;5053247;28;20545;-77
2023/08/15 00:53:39;;;;;;;7.60;5.53;;;21.80;99.90;;;21.80;78.67;100693.66;5053410;28;20324;-77
2023/08/15 00:56:13;;;;;;;8.80;5.50;;;21.80;99.90;;;21.77;78.62;100694.13;5053587;28;20193;-77
2023/08/15 00:58:45;;;;;;;9.13;5.63;;;21.80;99.90;;;21.70;78.24;100692.34;5053496;28;20372;-77
2023/08/15 01:01:21;;;;;;;5.63;4.93;;;21.70;99.90;;;21.67;78.67;100689.28;5053496;28;20281;-77
2023/08/15 01:03:54;;;;;;;7.60;5.27;;;21.70;99.90;;;21.75;78.50;100689.75;5053678;28;20222;-77
2023/08/15 01:06:26;;;;;;;12.27;5.47;;;21.80;99.90;;;21.67;78.27;100684.66;5053468;28;20198;-77
2023/08/15 01:09:00;;;;;;;7.97;4.97;;;21.70;99.90;;;21.63;78.70;100686.19;5053032;28;20734;-77
2023/08/15 01:11:40;;;;;;;8.57;5.53;;;21.60;99.90;;;21.56;79.44;100681.88;5053288;28;20204;-77
2023/08/15 01:14:18;;;;;;;9.00;5.83;;;21.50;99.90;;;21.60;79.23;100675.75;5053232;28;20643;-77
2023/08/15 01:16:53;;;;;;;11.07;5.87;;;21.60;99.90;;;21.57;78.88;100675.38;5053289;28;20217;-77
2023/08/15 01:19:36;;;;;;;9.00;5.60;;;21.60;99.90;;;21.60;79.26;100674.91;5053229;28;20194;-77
2023/08/15 01:22:15;;;;;;;7.00;4.87;;;21.60;99.90;;;21.60;79.05;100672.19;5053191;28;20277;-77
2023/08/15 01:24:50;;;;;;;8.50;5.57;;;21.60;99.90;;;21.56;79.18;100671.00;5053205;28;20277;-77
2023/08/15 01:27:22;;;;;;;7.90;5.40;;;21.60;99.90;;;21.50;79.21;100675.50;5053149;28;20616;-77
2023/08/15 01:29:55;;;;;;;8.77;5.73;;;21.50;99.90;;;21.44;79.75;100665.50;5053146;28;20187;-77
2023/08/15 01:32:38;;;;;;;8.60;6.07;;;21.50;99.90;;;21.46;79.65;100674.28;5052636;28;20683;-77
2023/08/15 01:35:16;;;;;;;9.00;5.77;;;21.50;99.90;;;21.42;79.51;100670.38;5053073;28;20194;-77
2023/08/15 01:37:54;;;;;;;10.90;5.70;;;21.50;99.90;;;21.39;79.48;100672.72;5053070;28;20277;-77
2023/08/15 01:40:29;;;;;;;9.57;6.00;;;21.40;99.90;;;21.37;79.48;100674.88;5053034;28;20290;-77
2023/08/15 01:43:04;;;;;;;8.03;5.63;;;21.40;99.90;;;21.33;79.73;100670.94;5052643;28;20778;-77
2023/08/15 01:45:36;;;;;;;9.73;5.97;;;21.30;99.90;;;21.28;80.09;100668.91;5053066;28;20240;-78
2023/08/15 01:48:11;;;;;;;9.83;5.33;;;21.30;99.90;;;21.26;80.16;100672.94;5052532;28;20210;-78
2023/08/15 01:50:41;;;;;;;9.30;6.10;;;21.30;99.90;;;21.25;80.00;100669.38;5052643;28;20194;-78
2023/08/15 01:53:13;;;;;;;9.87;5.80;;;21.30;99.90;;;21.27;80.29;100664.50;5052740;28;20287;-77
2023/08/15 01:55:46;;;;;;;8.53;5.93;;;21.30;99.90;;;21.28;79.96;100666.19;5052941;28;20286;-77
2023/08/15 01:58:18;;;;;;;6.10;5.50;;;21.40;99.90;;;21.24;80.27;100665.81;5052956;28;20260;-77
2023/08/15 02:00:49;;;;;;;7.83;5.60;;;21.30;99.90;;;21.23;80.41;100668.78;5052588;28;20191;-77
2023/08/15 02:03:21;;;;;;;8.83;5.93;;;21.30;99.90;;;21.23;81.04;100666.06;5055112;28;20316;-77
2023/08/15 02:05:53;;;;;;;7.27;5.70;;;21.30;99.90;;;21.22;80.30;100667.09;5056526;28;20194;-77
2023/08/15 02:08:25;;;;;;;8.57;5.47;;;21.30;99.90;;;21.19;81.58;100664.84;5056159;28;20675;-77
2023/08/15 02:10:58;;;;;;;6.17;5.13;;;21.20;99.90;;;21.14;80.22;100664.69;5056375;28;20191;-77
2023/08/15 02:13:33;;;;;;;7.80;5.57;;;21.20;99.90;;;21.06;80.81;100652.22;5056135;28;20343;-78
2023/08/15 02:16:05;;;;;;;8.77;5.10;;;21.10;99.90;;;21.09;81.17;100654.50;5056293;28;20276;-77
2023/08/15 02:18:37;;;;;;;9.13;5.57;;;21.10;99.90;;;21.09;80.88;100653.66;5056267;28;20201;-77
2023/08/15 02:21:12;;;;;;;7.20;5.50;;;21.10;99.90;;;21.07;81.01;100663.94;5056286;28;20280;-77
2023/08/15 02:23:44;;;;;;;5.43;4.93;;;21.10;99.90;;;21.04;81.56;100654.34;5055754;28;20313;-77
2023/08/15 02:26:18;;;;;;;6.20;5.60;;;21.10;99.90;;;21.05;82.28;100653.28;5055695;28;20637;-77
2023/08/15 02:28:50;;;;;;;8.80;5.33;;;21.10;99.90;;;21.03;82.44;100660.00;5055766;28;20285;-77
2023/08/15 02:31:22;;;;;;;9.03;5.20;;;21.10;99.90;;;21.04;82.33;100658.94;5055728;28;20652;-77
2023/08/15 02:33:54;;;;;;;8.67;4.90;;;21.00;99.90;;;20.99;81.71;100653.38;5055921;28;20239;-77
2023/08/15 02:36:28;;;;;;;9.40;5.30;;;21.10;99.90;;;20.93;81.26;100654.28;5055958;28;20232;-77
2023/08/15 02:38:59;;;;;;;7.13;5.37;;;21.00;99.90;;;20.88;82.35;100643.28;5055901;28;20277;-77
2023/08/15 02:41:35;;;;;;;6.43;5.40;;;20.90;99.90;;;20.88;82.31;100649.56;5056414;28;20237;-77
2023/08/15 02:44:08;;;;;;;8.27;5.60;;;20.90;99.90;;;20.87;82.58;100647.03;5055765;28;20258;-77
2023/08/15 02:46:40;;;;;;;7.63;4.77;;;20.90;99.90;;;20.84;82.07;100648.34;5056287;28;20214;-77
2023/08/15 02:49:12;;;;;;;6.43;5.10;;;20.90;99.90;;;20.82;81.86;100649.63;5057710;28;20229;-76
2023/08/15 02:51:44;;;;;;;6.83;5.20;;;20.90;99.90;;;20.79;81.87;100647.38;5059053;28;20190;-76
2023/08/15 02:54:16;;;;;;;7.80;5.87;;;20.80;99.90;;;20.79;82.51;100639.22;5059773;28;20234;-76
2023/08/15 02:56:49;;;;;;;8.07;5.50;;;20.90;99.90;;;20.75;83.06;100639.66;5059154;28;20615;-76
2023/08/15 02:59:21;;;;;;;6.07;5.27;;;20.80;99.90;;;20.79;82.21;100645.47;5055607;28;20722;-77
2023/08/15 03:01:53;;;;;;;7.90;5.13;;;20.90;99.90;;;20.81;82.41;100647.97;5055601;28;20194;-77
2023/08/15 03:04:25;;;;;;;6.90;5.47;;;20.90;99.90;;;20.78;83.04;100652.00;5054988;28;20268;-77
2023/08/15 03:06:57;;;;;;;6.47;5.17;;;20.80;99.90;;;20.77;83.27;100652.19;5055133;28;20191;-77
2023/08/15 03:09:29;;;;;;;5.70;5.03;;;20.80;99.90;;;20.78;82.78;100656.59;5055294;28;20281;-77
2023/08/15 03:12:02;;;;;;;7.03;5.00;;;20.90;99.90;;;20.73;82.72;100652.66;5054940;28;20224;-77
2023/08/15 03:14:34;;;;;;;6.37;5.23;;;20.80;99.90;;;20.74;82.57;100648.88;5054608;28;20582;-77
2023/08/15 03:17:07;;;;;;;10.03;5.13;;;20.80;99.90;;;20.71;82.52;100653.97;5055316;28;20612;-76
2023/08/15 03:19:39;;;;;;;6.97;5.10;;;20.80;99.90;;;20.63;83.31;100662.41;5054861;28;20194;-78
2023/08/15 03:22:11;;;;;;;9.13;5.93;;;20.70;99.90;;;20.53;84.81;100676.56;5054795;28;20652;-78
2023/08/15 03:24:43;;;;;;;9.07;5.97;;;20.60;99.90;;;20.56;84.19;100676.09;5054975;28;20233;-78
2023/08/15 03:27:16;;;;;;;7.90;5.00;;;20.60;99.90;;;20.55;83.62;100663.53;5055088;28;20199;-77
2023/08/15 03:29:48;;;;;;;9.90;5.37;;;20.60;99.90;;;20.56;83.43;100657.06;5054963;28;20198;-77
2023/08/15 03:32:20;;;;;;;7.17;5.67;;;20.70;99.90;;;20.49;85.12;100667.19;5054782;28;20200;-77
2023/08/15 03:34:52;;;;;;;6.10;5.37;;;20.60;99.90;;;20.44;85.82;100668.94;5054386;28;20695;-78
2023/08/15 03:37:24;;;;;;;9.93;5.53;;;20.50;99.90;;;20.45;85.09;100670.56;5054762;28;20281;-77
2023/08/15 03:39:56;;;;;;;6.97;5.30;;;20.50;99.90;;;20.41;83.30;100656.59;5054762;28;20218;-77
2023/08/15 03:42:29;;;;;;;6.73;5.53;;;20.60;99.90;;;20.41;83.53;100658.50;5054555;28;20198;-77
2023/08/15 03:45:01;;;;;;;8.63;5.07;;;20.50;99.90;;;20.41;84.51;100661.22;5054276;28;20281;-78
2023/08/15 03:47:33;;;;;;;7.40;5.47;;;20.50;99.90;;;20.41;83.76;100659.31;5054245;28;20253;-78
2023/08/15 03:50:05;;;;;;;8.97;5.83;;;20.50;99.90;;;20.38;83.79;100654.34;5054469;28;20201;-78
2023/08/15 03:52:37;;;;;;;9.03;4.90;;;20.50;99.90;;;20.39;83.55;100647.84;5054103;28;20313;-77
2023/08/15 03:55:09;;;;;;;6.20;4.93;;;20.50;99.90;;;20.40;83.79;100646.78;5054305;28;20218;-78
2023/08/15 03:57:43;;;;;;;7.50;4.83;;;20.60;99.90;;;20.39;83.75;100650.56;5054033;28;20213;-78
2023/08/15 04:00:18;;;;;;;6.27;5.20;;;20.50;99.90;;;20.36;84.04;100653.75;5054098;28;20730;-77
2023/08/15 04:02:50;;;;;;;6.70;4.70;;;20.50;99.90;;;20.37;83.97;100646.41;5054754;28;20309;-77
2023/08/15 04:05:24;;;;;;;7.40;5.10;;;20.50;99.90;;;20.27;83.58;100641.50;5054146;28;20190;-77
2023/08/15 04:07:56;;;;;;;8.07;5.73;;;20.40;99.90;;;20.25;84.96;100632.69;5054138;28;20277;-78
2023/08/15 04:10:27;;;;;;;8.57;5.10;;;20.30;99.90;;;20.23;84.42;100643.81;5054042;28;20300;-77
2023/08/15 04:13:01;;;;;;;7.50;5.27;;;20.40;99.90;;;20.30;83.81;100640.22;5053908;28;20321;-78
2023/08/15 04:15:33;;;;;;;5.77;5.17;;;20.40;99.90;;;20.23;84.14;100635.66;5053726;28;20681;-78
2023/08/15 04:18:05;;;;;;;8.27;5.70;;;20.40;99.90;;;20.18;83.78;100627.34;5053939;28;20248;-78
2023/08/15 04:20:38;;;;;;;6.13;5.53;;;20.30;99.90;;;20.21;84.46;100632.31;5053623;28;20226;-77
2023/08/15 04:23:12;;;;;;;8.70;5.83;;;20.30;99.90;;;20.21;84.09;100636.91;5053726;28;20599;-77
2023/08/15 04:25:44;;;;;;;6.73;5.60;;;20.30;99.90;;;20.27;83.41;100637.94;5053304;28;20193;-77
2023/08/15 04:28:17;;;;;;;7.70;5.67;;;20.40;99.90;;;20.22;84.43;100641.31;5053530;28;20707;-77
2023/08/15 04:30:49;;;;;;;7.90;5.70;;;20.30;99.90;;;20.19;84.51;100639.88;5053833;28;20222;-77
2023/08/15 04:33:21;;;;;;;7.40;5.47;;;20.30;99.90;;;20.20;83.69;100659.75;5053930;28;20241;-77
2023/08/15 04:35:53;;;;;;;5.93;5.00;;;20.30;99.90;;;20.18;84.19;100659.97;5053800;28;20221;-77
2023/08/15 04:38:26;;;;;;;5.60;5.07;;;20.30;99.90;;;20.15;83.59;100667.72;5053715;28;20222;-78
2023/08/15 04:40:57;;;;;;;9.93;5.13;;;20.30;99.90;;;20.13;84.51;100664.41;5053832;28;20619;-78
2023/08/15 04:43:31;;;;;;;7.77;4.60;;;20.20;99.90;;;20.12;83.55;100670.91;5053863;28;20241;-78
2023/08/15 04:46:04;;;;;;;10.43;5.20;;;20.20;99.90;;;20.13;84.24;100672.56;5053198;28;20604;-78
2023/08/15 04:48:36;;;;;;;8.93;5.40;;;20.30;99.90;;;20.13;85.09;100678.84;5053583;28;20244;-78
2023/08/15 04:51:08;;;;;;;13.10;6.03;;;20.20;99.90;;;20.05;86.27;100692.72;5053574;28;20228;-78
2023/08/15 04:53:40;;;;;;;8.90;5.43;;;20.20;99.90;;;20.04;85.67;100701.91;5053640;28;20316;-77
2023/08/15 04:56:12;;;;;;;7.83;5.07;;;20.20;99.90;;;20.05;85.53;100695.44;5053411;28;20214;-78
2023/08/15 04:58:46;;;;;;;6.77;4.83;;;20.20;99.90;;;20.07;85.26;100703.34;5053488;28;20194;-77
2023/08/15 05:01:18;;;;;;;8.30;5.30;;;20.20;99.90;;;20.08;85.73;100705.00;5053196;28;20281;-77
2023/08/15 05:03:50;;;;;;;6.27;4.87;;;20.20;99.90;;;20.07;85.50;100709.63;5053298;28;20230;-77
2023/08/15 05:06:22;;;;;;;8.00;5.30;;;20.30;99.90;;;20.10;85.95;100716.50;5053305;28;20586;-77
2023/08/15 05:08:54;;;;;;;8.90;4.90;;;20.30;99.90;;;20.10;85.85;100716.50;5053312;28;20285;-77
2023/08/15 05:11:27;;;;;;;6.30;4.57;;;20.30;99.90;;;20.12;86.64;100719.81;5053012;28;20196;-77
2023/08/15 05:14:02;;;;;;;9.87;5.13;;;20.30;99.90;;;20.12;86.15;100712.50;5053175;28;20228;-76
2023/08/15 05:16:33;;;;;;;11.60;5.10;;;20.30;99.90;;;20.15;86.68;100720.22;5052909;28;20216;-76
2023/08/15 05:19:06;;;;;;;5.93;4.97;;;20.30;99.90;;;20.17;86.45;100711.84;5053141;28;20630;-76
2023/08/15 05:21:37;;;;;;;5.60;4.97;;;20.40;99.90;;;20.18;86.72;100705.34;5053209;28;20194;-76
2023/08/15 05:24:11;;;;;;;7.90;4.70;;;20.40;99.90;;;20.19;86.86;100709.72;5053124;28;20221;-76
2023/08/15 05:26:43;;;;;;;9.83;4.60;;;20.40;99.90;;;20.23;87.70;100700.06;5052882;28;20282;-76
2023/08/15 05:29:16;;;;;;;6.93;4.43;;;20.40;99.90;;;20.25;87.30;100706.94;5053360;28;20727;-76
2023/08/15 05:31:48;;;;;;;9.87;5.13;;;20.50;99.90;;;20.26;88.47;100705.06;5052906;28;20190;-76
2023/08/15 05:34:20;;;;;;;6.20;4.57;;;20.50;99.90;;;20.30;88.60;100700.88;5053049;28;20280;-76
2023/08/15 05:36:51;;;;;;;6.97;4.67;;;20.60;99.90;;;20.35;88.52;100692.03;5053331;28;20237;-76
2023/08/15 05:39:23;;;;;;;7.33;4.97;;;20.60;99.90;;;20.41;89.17;100702.03;5056904;28;20662;-76
2023/08/15 05:41:55;;;;;;;5.77;4.40;;;20.70;99.90;;;20.46;89.20;100694.00;5056783;28;20568;-76
2023/08/15 05:44:29;;;;;;;9.83;5.07;;;20.70;99.90;;;20.48;88.80;100687.28;5056613;28;20237;-68
2023/08/15 05:47:01;;;;;;;7.67;5.27;;;20.80;99.90;;;20.52;88.89;100685.75;5056616;28;20218;-75
2023/08/15 05:49:33;;;;;;;7.80;4.70;;;20.80;99.90;;;20.56;89.83;100714.19;5056832;28;20292;-74
2023/08/15 05:52:04;;;;;;;6.50;4.73;;;20.80;99.90;;;20.59;88.57;100721.88;5056405;28;20637;-75
2023/08/15 05:54:36;;;;;;;6.43;5.27;;;20.90;99.90;;;20.62;89.08;100732.31;5056476;28;20229;-75
2023/08/15 05:57:08;;;;;;;5.50;4.47;;;20.90;99.90;;;20.64;89.73;100743.81;5056667;28;20233;-75
2023/08/15 05:59:41;;;;;;;7.03;4.77;;;20.90;99.90;;;20.67;89.95;100748.81;5056545;28;20233;-75
2023/08/15 06:02:13;;;;;;;7.57;5.10;;;20.90;99.90;;;20.68;90.38;100736.88;5056832;28;20221;-75
2023/08/15 06:04:45;;;;;;;5.03;4.47;;;21.00;99.90;;;20.69;89.30;100743.94;5057029;28;20191;-75
2023/08/15 06:07:17;;;;;;;6.43;4.60;;;21.00;99.90;;;20.70;89.44;100744.78;5056498;28;20186;-75
2023/08/15 06:09:50;;;;;;;5.67;4.60;;;21.00;99.90;;;20.70;89.87;100750.22;5056104;28;20205;-75
2023/08/15 06:12:22;;;;;;;5.70;4.70;;;21.00;99.90;;;20.70;89.82;100750.22;5056265;28;20312;-75
2023/08/15 06:14:55;;;;;;;5.13;4.50;;;21.00;99.90;;;20.69;89.33;100748.56;5056230;28;20210;-75
2023/08/15 06:17:27;;;;;;;5.83;4.70;;;21.00;99.90;;;20.69;89.94;100754.00;5056219;28;20269;-75
2023/08/15 06:19:58;;;;;;;5.13;4.63;;;21.00;99.90;;;20.71;90.02;100765.50;5056194;28;20229;-75
2023/08/15 06:22:31;;;;;;;8.40;4.33;;;21.00;99.90;;;20.71;89.61;100763.63;5056088;28;20194;-75
2023/08/15 06:25:03;;;;;;;7.07;4.60;;;21.00;99.90;;;20.70;90.07;100764.66;5056117;28;20214;-75
2023/08/15 06:27:35;;;;;;;5.17;4.60;;;21.00;99.90;;;20.70;90.47;100748.34;5056001;28;20191;-75
2023/08/15 06:30:10;;;;;;;8.23;4.83;;;21.00;99.90;;;20.69;90.61;100752.13;5055685;28;20644;-74
2023/08/15 06:32:44;;;;;;;7.53;5.73;;;20.90;99.90;;;20.70;92.53;100761.94;5055934;28;20230;-74
2023/08/15 06:35:16;;;;;;;8.63;5.80;;;21.00;99.90;;;20.68;92.72;100761.34;5055508;28;20605;-74
2023/08/15 06:37:47;;;;;;;9.33;4.93;;;20.90;99.90;;;20.66;92.17;100766.16;5055565;28;20644;-74
2023/08/15 06:40:19;;;;;;;10.40;5.30;;;21.00;99.90;;;20.66;93.88;100785.22;5055799;28;20194;-74
2023/08/15 06:42:51;;;;;;;7.67;5.73;;;20.90;99.90;;;20.63;94.66;100817.47;5055704;28;20258;-74
2023/08/15 06:45:25;;;;;;;7.67;5.97;;;20.90;99.90;;;20.60;95.40;100826.09;5055736;28;20278;-74
2023/08/15 06:47:57;;;;;;;8.60;5.60;;;20.90;99.90;;;20.58;95.95;100839.91;5054750;28;20302;-74
2023/08/15 06:50:29;;;;;;;8.10;5.97;;;20.80;99.90;;;20.53;96.50;100847.91;5055308;28;20191;-74
2023/08/15 06:53:01;;;;;;;8.43;5.87;;;20.80;99.90;;;20.50;96.64;100861.97;5055535;28;20258;-75
2023/08/15 06:55:33;;;;;;;8.13;5.70;;;20.80;99.90;;;20.47;96.84;100867.84;5055480;28;20232;-74
2023/08/15 06:58:05;;;;;;;10.47;6.20;;;20.80;99.90;;;20.45;97.89;100872.66;5055472;28;20232;-73
2023/08/15 07:00:39;;;;;;;9.17;6.07;;;20.70;99.90;;;20.43;97.47;100880.22;5055427;28;20194;-74
2023/08/15 07:03:11;;;;;;;9.67;5.87;;;20.70;99.90;;;20.42;97.98;100891.31;5055248;28;20230;-74
2023/08/15 07:05:43;;;;;;;9.67;6.30;;;20.70;99.90;;;20.37;98.24;100907.47;5055439;28;20598;-74
2023/08/15 07:08:16;;;;;;;12.17;6.80;;;20.60;99.90;;;20.36;98.53;100906.63;5055622;28;20677;-74
2023/08/15 07:10:47;;;;;;;8.77;6.50;;;20.60;99.90;;;20.36;99.77;100894.91;5055156;28;20194;-74
2023/08/15 07:13:19;;;;;;;12.93;7.30;;;20.60;99.90;;;20.30;100.00;100884.91;5055103;28;20230;-73
2023/08/15 07:15:57;;;;;;;7.63;6.30;;;20.60;99.90;;;20.30;99.35;100850.41;5055079;28;20210;-74
2023/08/15 07:18:29;;;;;;;8.90;6.43;;;20.50;99.90;;;20.33;99.74;100822.78;5055259;28;20206;-74
2023/08/15 07:21:03;;;;;;;10.70;6.80;;;20.60;99.90;;;20.35;99.89;100828.81;5055060;28;20570;-73
2023/08/15 07:23:35;;;;;;;8.07;6.23;;;20.60;99.90;;;20.37;98.65;100799.53;5054623;28;20726;-74
2023/08/15 07:26:06;;;;;;;9.40;5.87;;;20.60;99.90;;;20.39;97.86;100778.38;5054921;28;20241;-73
2023/08/15 07:28:38;;;;;;;7.63;6.50;;;20.70;99.90;;;20.46;98.55;100741.06;5054925;28;20194;-73
2023/08/15 07:31:11;;;;;;;8.57;6.53;;;20.70;99.90;;;20.49;98.30;100727.00;5054476;28;20305;-74
2023/08/15 07:33:43;;;;;;;8.13;6.83;;;20.70;99.90;;;20.54;98.86;100708.16;5054787;28;20324;-63
2023/08/15 07:36:15;;;;;;;9.87;6.87;;;20.80;99.90;;;20.59;100.00;100704.72;5054360;28;20241;-74
2023/08/15 07:38:47;;;;;;;9.53;7.67;;;20.90;99.90;;;20.64;100.00;100697.56;5054557;28;20304;-74
2023/08/15 07:41:19;;;;;;;6.63;5.93;;;20.90;99.90;;;20.58;99.93;100735.72;5054709;28;20277;-74
2023/08/15 07:43:51;;;;;;;8.90;7.03;;;20.90;99.90;;;20.58;100.00;100769.16;5054579;28;20318;-74
2023/08/15 07:46:24;;;;;;;9.90;6.93;;;20.80;99.90;;;20.59;100.00;100779.00;5054079;28;20210;-74
2023/08/15 07:48:56;;;;;;;7.77;6.97;;;20.90;99.90;;;20.61;100.00;100757.03;5054452;28;20272;-74
2023/08/15 07:51:31;;;;;;;9.33;7.27;;;20.80;99.90;;;20.64;100.00;100791.94;5054482;28;20187;-74
2023/08/15 07:54:03;;;;;;;7.43;6.73;;;20.90;99.90;;;20.64;100.00;100802.81;5054035;28;20781;-74
2023/08/15 07:56:35;;;;;;;9.13;6.63;;;20.90;99.90;;;20.68;100.00;100799.44;5053942;28;20216;-74
2023/08/15 07:59:09;;;;;;;7.07;6.37;;;20.90;99.90;;;20.73;100.00;100798.75;5054200;28;20240;-74
2023/08/15 08:01:43;;;;;;;7.40;6.20;;;21.00;99.90;;;20.79;100.00;100806.00;5053339;28;20208;-74
2023/08/15 08:04:15;;;;;;;8.43;6.63;;;21.10;99.90;;;20.85;100.00;100812.44;5053839;28;20226;-74
2023/08/15 08:06:47;;;;;;;9.03;6.77;;;21.10;99.90;;;20.84;100.00;100843.44;5054190;28;20191;-74
2023/08/15 08:09:20;;;;;;;7.67;6.00;;;21.10;99.90;;;20.83;100.00;100849.94;5054160;28;20208;-74
2023/08/15 08:11:52;;;;;;;6.03;4.80;;;21.10;99.90;;;20.81;100.00;100852.06;5054129;28;20281;-75
2023/08/15 08:14:24;;;;;;;5.40;4.30;;;21.10;99.90;;;20.77;97.99;100842.66;5054025;28;20312;-75
2023/08/15 08:16:57;;;;;;;5.63;5.10;;;21.10;99.90;;;20.89;99.84;100843.59;5053951;28;20211;-75
2023/08/15 08:19:29;;;;;;;5.77;4.30;;;21.10;99.90;;;20.90;98.60;100859.69;5053735;28;20740;-75
2023/08/15 08:22:00;;;;;;;5.87;4.13;;;21.20;99.90;;;20.89;97.52;100849.06;5054203;28;20195;-75
2023/08/15 08:24:32;;;;;;;4.00;3.60;;;21.20;99.90;;;20.96;97.45;100853.34;5053762;28;20222;-75
2023/08/15 08:27:05;;;;;;;6.03;3.53;;;21.20;99.90;;;20.99;96.38;100858.38;5053838;28;20633;-75
2023/08/15 08:29:37;;;;;;;6.80;4.13;;;21.30;99.90;;;21.10;97.56;100862.22;5054394;28;20274;-75
2023/08/15 08:32:10;;;;;;;4.30;3.27;;;21.40;99.90;;;21.18;96.49;100861.94;5054431;28;20279;-75
2023/08/15 08:34:42;;;;;;;6.80;3.50;;;21.50;99.90;;;21.25;96.09;100857.25;5054709;28;20194;-74
2023/08/15 08:37:14;;;;;;;3.77;3.43;;;21.60;99.90;;;21.36;95.77;100869.28;5054131;28;20246;-74
2023/08/15 08:39:46;;;;;;;5.67;4.07;;;21.70;99.90;;;21.43;93.89;100865.44;5054319;28;20263;-75
2023/08/15 08:42:18;;;;;;;3.57;3.20;;;21.70;99.90;;;21.48;93.32;100865.56;5053515;28;20187;-75
2023/08/15 08:44:50;;;;;;;3.43;2.93;;;21.80;99.90;;;21.53;92.50;100870.34;5053603;28;20194;-76
2023/08/15 08:47:29;;;;;;;3.30;3.00;;;21.90;99.90;;;21.57;90.21;100869.66;5053314;28;20287;-75
2023/08/15 08:50:02;;;;;;;2.90;2.60;;;21.90;99.90;;;21.63;87.99;100871.47;5053521;28;20194;-75
2023/08/15 08:52:38;;;;;;;3.07;2.67;;;22.00;99.90;;;21.72;89.20;100859.16;5053084;28;20642;-75
2023/08/15 08:55:12;;;;;;;3.03;2.40;;;22.00;99.90;;;21.75;90.15;100864.16;5053514;28;20300;-76
2023/08/15 08:57:53;;;;;;;3.47;2.27;;;22.10;99.90;;;21.83;86.87;100859.44;5053092;28;20216;-76
2023/08/15 09:00:33;;;;;;;3.23;2.53;;;22.20;99.90;;;21.91;86.65;100872.78;5053839;28;20198;-76
2023/08/15 09:03:07;;;;;;;4.23;2.53;;;22.30;99.90;;;21.99;86.64;100865.09;5053319;28;20253;-76
2023/08/15 09:05:41;;;;;;;3.73;2.57;;;22.30;99.90;;;22.10;87.15;100852.56;5053456;28;20194;-75
2023/08/15 09:08:13;;;;;;;4.03;2.67;;;22.50;99.90;;;22.15;89.19;100853.56;5053409;28;20270;-76
2023/08/15 09:10:45;;;;;;;2.73;2.10;;;22.50;99.90;;;22.23;86.26;100846.91;5053137;28;20683;-76
2023/08/15 09:13:24;;;;;;;4.37;2.20;;;22.60;99.90;;;22.31;84.75;100846.59;5057462;28;20232;-76
2023/08/15 09:15:58;;;;;;;3.40;2.20;;;22.70;99.90;;;22.43;83.87;100849.34;5057526;28;20186;-76
2023/08/15 09:18:35;;;;;;;2.10;1.77;;;22.80;99.90;;;22.52;80.79;100850.66;5057401;28;20225;-76
2023/08/15 09:21:12;;;;;;;4.50;2.50;;;22.90;99.90;;;22.58;81.37;100853.25;5056780;28;20225;-76
2023/08/15 09:23:47;;;;;;;2.53;1.90;;;22.90;99.90;;;22.68;82.52;100853.53;5057243;28;20316;-74
2023/08/15 09:26:19;;;;;;;2.53;2.00;;;23.00;99.90;;;22.81;80.27;100848.94;5057000;28;20302;-74
2023/08/15 09:28:52;;;;;;;2.23;2.03;;;23.20;99.90;;;22.85;80.30;100855.53;5056956;28;20705;-74
2023/08/15 09:31:24;;;;;;;1.63;1.53;;;23.20;99.90;;;22.99;79.72;100856.97;5057022;28;20218;-76
2023/08/15 09:33:57;;;;;;;2.17;1.70;;;23.30;99.90;;;23.09;78.81;100865.38;5057380;28;20233;-75
2023/08/15 09:36:31;;;;;;;2.40;2.10;;;23.50;99.90;;;23.17;75.19;100867.75;5057000;28;20592;-75
2023/08/15 09:39:08;;;;;;;2.00;1.47;;;23.60;99.90;;;23.23;75.28;100858.59;5056870;28;20232;-75
2023/08/15 09:41:46;;;;;;;2.90;1.80;;;23.60;99.90;;;23.29;74.88;100865.81;5056914;28;20187;-75
2023/08/15 09:44:36;;;;;;;2.50;2.10;;;23.60;99.90;;;23.38;74.84;100864.41;5055971;28;20242;-75
2023/08/15 09:47:10;;;;;;;1.70;1.50;;;23.70;99.90;;;23.48;74.23;100863.81;5056237;28;20321;-74
2023/08/15 09:49:44;;;;;;;2.70;1.57;;;23.80;99.90;;;23.60;75.88;100851.75;5056844;28;20194;-74
2023/08/15 09:52:18;;;;;;;2.13;2.00;;;24.00;99.90;;;23.66;74.20;100855.44;5056424;28;20659;-74
2023/08/15 09:54:51;;;;;;;1.83;1.73;;;24.10;99.90;;;23.64;73.74;100863.88;5056712;28;20232;-74
2023/08/15 09:57:22;;;;;;;2.17;1.97;;;24.00;99.90;;;23.65;76.14;100865.53;5056645;28;20297;-75
2023/08/15 09:59:55;;;;;;;2.43;2.23;;;24.00;99.90;;;23.73;73.20;100878.81;5056312;28;20194;-75
2023/08/15 10:02:30;;;;;;;1.73;1.63;;;24.10;99.90;;;23.78;72.96;100867.16;5056530;28;20190;-75
2023/08/15 10:05:07;;;;;;;2.70;2.10;;;24.10;99.90;;;23.88;72.37;100870.06;5056541;28;20200;-75
2023/08/15 10:07:41;;;;;;;2.70;2.13;;;24.20;99.90;;;23.97;74.23;100876.84;5056563;28;20272;-74
2023/08/15 10:10:14;;;;;;;7.70;2.13;;;24.30;99.90;;;23.97;74.87;100867.78;5056503;28;20272;-74
2023/08/15 10:12:50;;;;;;;2.87;2.17;;;24.30;99.90;;;24.09;74.34;100860.34;5056312;28;20321;-74
2023/08/15 10:15:24;;;;;;;3.07;1.93;;;24.40;99.90;;;24.28;71.92;100875.50;5056009;28;20610;-74
2023/08/15 10:17:57;;;;;;;2.77;2.40;;;24.50;99.90;;;24.28;71.54;100880.16;5055947;28;20210;-74
2023/08/15 10:20:37;;;;;;;1.97;1.87;;;24.60;99.90;;;24.31;70.46;100879.66;5055912;28;20561;-75
2023/08/15 10:23:10;;;;;;;2.97;2.27;;;24.70;99.90;;;24.34;70.84;100880.00;5054927;28;20230;-74
2023/08/15 10:25:43;;;;;;;2.47;2.27;;;24.70;99.90;;;24.48;71.45;100886.81;5056084;28;20194;-75
2023/08/15 10:28:16;;;;;;;2.30;2.10;;;24.70;99.90;;;24.55;71.41;100890.22;5056090;28;20191;-75
2023/08/15 10:30:50;;;;;;;2.57;2.37;;;24.80;99.90;;;24.64;69.34;100891.44;5055873;28;20293;-75
2023/08/15 10:33:27;;;;;;;3.00;2.33;;;24.90;99.90;;;24.68;69.26;100891.78;5055984;28;20225;-75
2023/08/15 10:36:12;;;;;;;4.17;2.80;;;25.00;99.90;;;24.65;71.63;100892.28;5055989;28;20190;-75